createdAt,value
2019-02-07T00:00:44.925Z,10.80
2019-02-07T00:01:44.933Z,11.40
2019-02-07T00:02:44.925Z,11.70
2019-02-07T00:03:44.886Z,10.00
2019-02-07T00:04:44.871Z,8.70
2019-02-07T00:05:44.869Z,10.30
2019-02-07T00:06:44.858Z,11.10
2019-02-07T00:07:44.855Z,11.20
2019-02-07T00:08:44.875Z,10.90
2019-02-07T00:09:44.822Z,10.10
2019-02-07T00:10:44.817Z,10.40
2019-02-07T00:11:44.798Z,9.90
2019-02-07T00:14:08.509Z,11.10
2019-02-07T00:14:56.355Z,10.20
2019-02-07T00:15:56.200Z,9.60
2019-02-07T00:16:56.220Z,11.50
2019-02-07T00:17:56.164Z,12.00
2019-02-07T00:18:56.188Z,9.80
2019-02-07T00:19:56.141Z,10.50
2019-02-07T00:20:56.132Z,11.30
2019-02-07T00:21:56.168Z,12.30
2019-02-07T00:22:56.124Z,14.50
2019-02-07T00:23:56.131Z,14.60
2019-02-07T00:24:56.115Z,15.30
2019-02-07T00:25:56.065Z,14.60
2019-02-07T00:26:56.081Z,14.40
2019-02-07T00:28:17.191Z,11.60
2019-02-07T00:28:56.052Z,13.60
2019-02-07T00:29:56.051Z,7.90
2019-02-07T00:30:56.044Z,8.80
2019-02-07T00:31:56.058Z,7.40
2019-02-07T00:32:56.033Z,4.20
2019-02-07T00:33:56.008Z,6.70
2019-02-07T00:34:56.007Z,4.00
2019-02-07T00:35:55.998Z,4.70
2019-02-07T00:36:56.025Z,3.80
2019-02-07T00:37:56.966Z,4.50
2019-02-07T00:38:56.002Z,3.80
2019-02-07T00:39:55.974Z,3.80
2019-02-07T00:40:55.936Z,3.80
2019-02-07T00:41:55.930Z,3.00
2019-02-07T00:43:16.952Z,3.10
2019-02-07T00:43:56.070Z,3.20
2019-02-07T00:44:55.891Z,2.50
2019-02-07T00:45:55.934Z,2.40
2019-02-07T00:46:55.905Z,3.00
2019-02-07T00:47:55.899Z,2.60
2019-02-07T00:48:55.902Z,3.30
2019-02-07T00:49:55.830Z,2.40
2019-02-07T00:50:55.856Z,3.00
2019-02-07T00:51:55.869Z,2.40
2019-02-07T00:53:06.287Z,2.80
2019-02-07T00:54:06.508Z,3.90
2019-02-07T00:54:55.981Z,2.80
2019-02-07T00:55:55.876Z,2.40
2019-02-07T00:56:55.789Z,3.40
2019-02-07T00:57:55.847Z,4.50
2019-02-07T00:58:55.799Z,3.20
2019-02-07T00:59:55.715Z,3.80
2019-02-07T01:00:55.708Z,3.60
2019-02-07T01:01:55.682Z,3.10
2019-02-07T01:02:55.664Z,3.10
2019-02-07T01:03:55.677Z,3.40
2019-02-07T01:04:55.675Z,2.40
2019-02-07T01:06:06.515Z,2.50
2019-02-07T01:06:55.776Z,2.10
2019-02-07T01:07:55.705Z,3.50
2019-02-07T01:08:55.682Z,2.30
2019-02-07T01:09:55.772Z,2.80
2019-02-07T01:10:55.602Z,2.30
2019-02-07T01:12:06.960Z,1.80
2019-02-07T01:13:05.098Z,2.60
2019-02-07T01:13:55.694Z,2.10
2019-02-07T01:15:02.209Z,2.40
2019-02-07T01:15:56.590Z,2.10
2019-02-07T01:16:55.550Z,2.00
2019-02-07T01:17:55.515Z,2.70
2019-02-07T01:18:55.521Z,2.10
2019-02-07T01:19:55.512Z,2.10
2019-02-07T01:20:55.476Z,1.70
2019-02-07T01:21:55.463Z,2.70
2019-02-07T01:22:55.449Z,1.80
2019-02-07T01:23:55.449Z,1.90
2019-02-07T01:24:55.439Z,1.60
2019-02-07T01:25:55.459Z,2.10
2019-02-07T01:27:04.092Z,1.60
2019-02-07T01:29:06.305Z,1.50
2019-02-07T01:30:06.343Z,1.60
2019-02-07T01:31:06.347Z,1.80
2019-02-07T01:32:06.128Z,1.60
2019-02-07T01:33:06.116Z,2.10
2019-02-07T01:34:06.185Z,1.50
2019-02-07T01:35:06.094Z,1.50
2019-02-07T01:36:06.117Z,1.80
2019-02-07T01:37:06.063Z,1.80
2019-02-07T01:38:06.054Z,2.20
2019-02-07T01:39:06.051Z,1.90
2019-02-07T01:40:06.026Z,2.00
2019-02-07T01:41:06.017Z,1.80
2019-02-07T01:42:06.038Z,1.50
2019-02-07T01:43:27.115Z,1.50
2019-02-07T01:44:06.003Z,2.00
2019-02-07T01:45:12.750Z,1.90
2019-02-07T01:46:05.966Z,1.70
2019-02-07T01:47:05.968Z,1.70
2019-02-07T01:48:05.971Z,1.50
2019-02-07T01:49:05.949Z,1.80
2019-02-07T01:50:05.931Z,2.10
2019-02-07T01:51:05.928Z,1.70
2019-02-07T01:52:05.935Z,1.80
2019-02-07T01:53:05.882Z,1.90
2019-02-07T01:54:06.948Z,2.00
2019-02-07T01:55:05.871Z,1.60
2019-02-07T01:56:05.860Z,1.60
2019-02-07T01:57:05.851Z,1.50
2019-02-07T01:58:05.855Z,1.80
2019-02-07T01:59:05.819Z,1.70
2019-02-07T02:00:05.826Z,1.40
2019-02-07T02:01:05.795Z,1.30
2019-02-07T02:02:05.849Z,1.60
2019-02-07T02:03:05.797Z,1.30
2019-02-07T02:04:05.769Z,2.10
2019-02-07T02:05:05.752Z,1.70
2019-02-07T02:06:05.788Z,1.60
2019-02-07T02:07:05.719Z,1.10
2019-02-07T02:08:05.729Z,2.20
2019-02-07T02:09:05.746Z,1.90
2019-02-07T02:10:05.718Z,1.40
2019-02-07T02:11:05.688Z,1.90
2019-02-07T02:12:05.678Z,1.70
2019-02-07T02:14:18.307Z,3.00
2019-02-07T02:15:24.469Z,1.70
2019-02-07T02:16:18.163Z,2.30
2019-02-07T02:17:18.212Z,1.30
2019-02-07T02:18:18.081Z,1.90
2019-02-07T02:19:18.064Z,1.90
2019-02-07T02:20:18.101Z,0.90
2019-02-07T02:21:18.040Z,1.90
2019-02-07T02:22:18.050Z,1.60
2019-02-07T02:23:18.092Z,1.10
2019-02-07T02:24:18.002Z,1.30
2019-02-07T02:25:17.992Z,1.90
2019-02-07T02:26:18.002Z,3.80
2019-02-07T02:27:17.988Z,1.40
2019-02-07T02:28:17.975Z,1.80
2019-02-07T02:29:17.962Z,1.70
2019-02-07T02:30:17.936Z,1.60
2019-02-07T02:31:17.959Z,1.30
2019-02-07T02:32:17.944Z,1.60
2019-02-07T02:33:17.892Z,1.30
2019-02-07T02:34:17.888Z,1.10
2019-02-07T02:35:17.876Z,1.10
2019-02-07T02:36:17.899Z,1.70
2019-02-07T02:37:17.884Z,1.20
2019-02-07T02:38:18.576Z,2.40
2019-02-07T02:39:17.829Z,3.60
2019-02-07T02:40:17.820Z,1.60
2019-02-07T02:41:17.812Z,1.90
2019-02-07T02:42:17.821Z,2.20
2019-02-07T02:43:17.793Z,1.70
2019-02-07T02:44:17.768Z,1.50
2019-02-07T02:45:17.791Z,1.90
2019-02-07T02:46:17.765Z,1.80
2019-02-07T02:47:17.785Z,2.20
2019-02-07T02:48:17.831Z,1.20
2019-02-07T02:49:17.716Z,1.00
2019-02-07T02:50:17.749Z,0.90
2019-02-07T02:51:17.706Z,1.10
2019-02-07T02:52:17.695Z,1.60
2019-02-07T02:53:17.706Z,1.20
2019-02-07T02:54:17.708Z,1.90
2019-02-07T02:55:17.671Z,1.70
2019-02-07T02:56:17.635Z,1.20
2019-02-07T02:57:17.709Z,1.80
2019-02-07T02:58:17.673Z,1.40
2019-02-07T02:59:17.648Z,1.30
2019-02-07T03:00:17.633Z,1.10
2019-02-07T03:01:18.591Z,1.60
2019-02-07T03:02:17.613Z,1.40
2019-02-07T03:03:17.568Z,2.10
2019-02-07T03:04:17.602Z,1.90
2019-02-07T03:05:17.629Z,1.40
2019-02-07T03:06:17.531Z,1.20
2019-02-07T03:07:17.535Z,1.20
2019-02-07T03:08:17.540Z,1.70
2019-02-07T03:09:17.507Z,1.90
2019-02-07T03:10:17.535Z,1.80
2019-02-07T03:11:17.603Z,1.20
2019-02-07T03:12:17.471Z,1.30
2019-02-07T03:13:17.474Z,2.20
2019-02-07T03:14:17.475Z,2.00
2019-02-07T03:15:18.434Z,2.20
2019-02-07T03:16:17.436Z,1.40
2019-02-07T03:17:17.435Z,1.70
2019-02-07T03:18:17.394Z,2.10
2019-02-07T03:19:17.449Z,1.70
2019-02-07T03:20:17.418Z,3.30
2019-02-07T03:21:17.362Z,2.70
2019-02-07T03:22:17.382Z,2.60
2019-02-07T03:23:17.406Z,2.20
2019-02-07T03:24:17.331Z,2.20
2019-02-07T03:25:17.357Z,2.50
2019-02-07T03:26:17.340Z,2.80
2019-02-07T03:27:17.291Z,3.50
2019-02-07T03:28:17.304Z,2.80
2019-02-07T03:29:17.356Z,3.00
2019-02-07T03:30:17.315Z,2.40
2019-02-07T03:31:17.278Z,2.60
2019-02-07T03:32:17.246Z,9.80
2019-02-07T03:33:17.252Z,6.30
2019-02-07T03:34:17.228Z,9.50
2019-02-07T03:35:18.131Z,5.60
2019-02-07T03:36:17.239Z,3.90
2019-02-07T03:37:17.480Z,9.40
2019-02-07T03:38:17.170Z,3.90
2019-02-07T03:39:17.143Z,3.80
2019-02-07T03:40:17.155Z,2.90
2019-02-07T03:41:17.178Z,3.50
2019-02-07T03:42:17.169Z,4.10
2019-02-07T03:43:17.168Z,2.40
2019-02-07T03:44:17.105Z,1.80
2019-02-07T03:45:17.125Z,2.20
2019-02-07T03:46:17.092Z,2.10
2019-02-07T03:47:17.113Z,2.80
2019-02-07T03:48:17.081Z,1.70
2019-02-07T03:49:17.073Z,2.10
2019-02-07T03:50:17.063Z,2.90
2019-02-07T03:51:17.021Z,2.30
2019-02-07T03:52:17.051Z,2.40
2019-02-07T03:53:17.035Z,3.20
2019-02-07T03:54:16.999Z,3.80
2019-02-07T03:55:17.005Z,1.70
2019-02-07T03:56:16.964Z,2.30
2019-02-07T03:57:17.050Z,2.90
2019-02-07T03:58:16.944Z,3.30
2019-02-07T03:59:16.964Z,1.50
2019-02-07T04:00:16.929Z,3.40
2019-02-07T04:01:16.911Z,1.70
2019-02-07T04:02:16.927Z,2.50
2019-02-07T04:03:16.900Z,2.00
2019-02-07T04:04:16.866Z,2.30
2019-02-07T04:05:16.879Z,2.10
2019-02-07T04:06:16.891Z,2.10
2019-02-07T04:07:16.866Z,3.00
2019-02-07T04:08:16.839Z,2.60
2019-02-07T04:09:16.831Z,3.40
2019-02-07T04:10:16.839Z,3.60
2019-02-07T04:11:16.791Z,2.60
2019-02-07T04:12:16.776Z,2.30
2019-02-07T04:13:17.617Z,2.70
2019-02-07T04:14:16.767Z,2.80
2019-02-07T04:15:16.773Z,2.50
2019-02-07T04:16:16.808Z,2.50
2019-02-07T04:17:16.767Z,2.50
2019-02-07T04:18:16.739Z,2.10
2019-02-07T04:19:16.710Z,2.70
2019-02-07T04:20:16.697Z,3.00
2019-02-07T04:21:16.704Z,2.60
2019-02-07T04:22:16.707Z,2.60
2019-02-07T04:23:16.660Z,2.10
2019-02-07T04:24:18.356Z,2.50
2019-02-07T04:25:16.670Z,2.60
2019-02-07T04:26:16.620Z,3.40
2019-02-07T04:27:16.908Z,3.20
2019-02-07T04:28:16.655Z,3.40
2019-02-07T04:29:16.595Z,4.20
2019-02-07T04:30:16.585Z,2.10
2019-02-07T04:31:16.567Z,3.10
2019-02-07T04:32:16.570Z,2.30
2019-02-07T04:33:16.770Z,2.70
2019-02-07T04:34:16.546Z,2.20
2019-02-07T04:35:16.560Z,2.60
2019-02-07T04:36:16.523Z,3.00
2019-02-07T04:37:16.498Z,2.70
2019-02-07T04:38:16.481Z,2.50
2019-02-07T04:39:16.528Z,3.00
2019-02-07T04:40:16.473Z,2.40
2019-02-07T04:41:16.444Z,2.50
2019-02-07T04:42:16.464Z,2.00
2019-02-07T04:43:16.566Z,2.20
2019-02-07T04:44:16.440Z,2.50
2019-02-07T04:45:16.446Z,2.10
2019-02-07T04:46:26.665Z,2.60
2019-02-07T04:47:17.382Z,2.60
2019-02-07T04:48:16.381Z,4.00
2019-02-07T04:49:16.383Z,5.30
2019-02-07T04:50:16.383Z,3.70
2019-02-07T04:51:16.401Z,3.50
2019-02-07T04:52:16.339Z,2.80
2019-02-07T04:53:16.345Z,2.40
2019-02-07T04:54:16.317Z,2.50
2019-02-07T04:55:16.302Z,2.80
2019-02-07T04:56:16.289Z,4.00
2019-02-07T04:57:16.288Z,4.60
2019-02-07T04:58:16.264Z,3.60
2019-02-07T04:59:16.292Z,6.60
2019-02-07T05:00:16.243Z,10.30
2019-02-07T05:01:16.243Z,23.20
2019-02-07T05:02:16.258Z,8.90
2019-02-07T05:03:16.230Z,6.60
2019-02-07T05:04:16.203Z,4.90
2019-02-07T05:05:16.224Z,3.20
2019-02-07T05:06:16.172Z,3.30
2019-02-07T05:07:16.203Z,3.10
2019-02-07T05:08:16.185Z,4.20
2019-02-07T05:09:16.152Z,13.50
2019-02-07T05:10:16.126Z,3.30
2019-02-07T05:11:16.124Z,4.50
2019-02-07T05:12:16.107Z,3.90
2019-02-07T05:13:16.175Z,4.60
2019-02-07T05:14:16.092Z,4.30
2019-02-07T05:15:16.075Z,3.80
2019-02-07T05:16:16.081Z,3.30
2019-02-07T05:17:16.562Z,2.80
2019-02-07T05:18:16.062Z,2.10
2019-02-07T05:19:16.054Z,2.70
2019-02-07T05:20:16.046Z,2.70
2019-02-07T05:21:16.007Z,3.20
2019-02-07T05:22:15.991Z,3.30
2019-02-07T05:23:16.010Z,3.40
2019-02-07T05:24:15.988Z,3.10
2019-02-07T05:25:15.990Z,5.60
2019-02-07T05:26:15.964Z,4.60
2019-02-07T05:27:15.968Z,3.20
2019-02-07T05:28:15.948Z,2.00
2019-02-07T05:29:15.942Z,2.00
2019-02-07T05:30:15.972Z,1.80
2019-02-07T05:31:16.902Z,2.40
2019-02-07T05:32:15.909Z,3.10
2019-02-07T05:33:15.888Z,3.90
2019-02-07T05:34:15.868Z,3.80
2019-02-07T05:35:15.875Z,3.50
2019-02-07T05:36:15.856Z,6.50
2019-02-07T05:37:15.827Z,5.00
2019-02-07T05:38:15.866Z,4.60
2019-02-07T05:39:15.802Z,3.50
2019-02-07T05:40:25.920Z,2.80
2019-02-07T05:41:15.919Z,3.90
2019-02-07T05:42:15.907Z,4.70
2019-02-07T05:43:15.838Z,3.70
2019-02-07T05:44:15.922Z,3.40
2019-02-07T05:45:15.761Z,3.30
2019-02-07T05:46:15.753Z,3.00
2019-02-07T05:47:15.792Z,3.50
2019-02-07T05:48:15.701Z,2.80
2019-02-07T05:49:15.702Z,2.70
2019-02-07T05:50:15.721Z,2.50
2019-02-07T05:51:15.683Z,2.80
2019-02-07T05:52:15.675Z,2.90
2019-02-07T05:53:15.693Z,3.60
2019-02-07T05:54:15.644Z,5.30
2019-02-07T05:55:15.631Z,9.70
2019-02-07T05:56:15.640Z,5.00
2019-02-07T05:57:15.609Z,3.50
2019-02-07T05:58:16.092Z,3.30
2019-02-07T05:59:15.632Z,3.50
2019-02-07T06:00:15.579Z,2.80
2019-02-07T06:01:15.562Z,4.00
2019-02-07T06:02:15.569Z,2.90
2019-02-07T06:03:15.543Z,11.40
2019-02-07T06:04:15.649Z,3.00
2019-02-07T06:05:15.540Z,3.50
2019-02-07T06:06:15.531Z,3.20
2019-02-07T06:07:15.504Z,2.10
2019-02-07T06:08:15.488Z,3.00
2019-02-07T06:09:15.507Z,2.00
2019-02-07T06:10:15.530Z,2.90
2019-02-07T06:11:15.445Z,5.00
2019-02-07T06:12:15.441Z,4.00
2019-02-07T06:13:15.457Z,2.30
2019-02-07T06:14:15.431Z,3.50
2019-02-07T06:15:15.410Z,3.10
2019-02-07T06:16:15.443Z,3.60
2019-02-07T06:17:15.454Z,11.50
2019-02-07T06:18:15.385Z,4.80
2019-02-07T06:19:15.381Z,2.90
2019-02-07T06:20:15.388Z,3.90
2019-02-07T06:21:15.693Z,3.40
2019-02-07T06:22:15.346Z,3.20
2019-02-07T06:23:15.335Z,5.50
2019-02-07T06:24:15.303Z,3.70
2019-02-07T06:25:15.302Z,5.10
2019-02-07T06:26:15.287Z,5.60
2019-02-07T06:27:15.326Z,3.50
2019-02-07T06:28:36.338Z,3.80
2019-02-07T06:29:15.253Z,5.20
2019-02-07T06:30:15.310Z,5.30
2019-02-07T06:31:15.236Z,9.80
2019-02-07T06:32:15.218Z,8.10
2019-02-07T06:33:15.230Z,8.10
2019-02-07T06:34:15.206Z,4.40
2019-02-07T06:35:15.194Z,4.20
2019-02-07T06:36:15.265Z,2.70
2019-02-07T06:37:15.167Z,3.70
2019-02-07T06:38:15.158Z,2.80
2019-02-07T06:39:15.231Z,2.30
2019-02-07T06:40:15.130Z,3.20
2019-02-07T06:41:15.113Z,2.50
2019-02-07T06:42:15.104Z,2.60
2019-02-07T06:43:15.596Z,2.70
2019-02-07T06:44:15.121Z,3.40
2019-02-07T06:45:15.145Z,2.20
2019-02-07T06:46:15.062Z,3.10
2019-02-07T06:47:15.049Z,3.10
2019-02-07T06:48:15.046Z,2.60
2019-02-07T06:49:15.035Z,4.70
2019-02-07T06:50:15.054Z,4.30
2019-02-07T06:51:15.021Z,28.40
2019-02-07T06:52:15.030Z,6.10
2019-02-07T06:53:15.025Z,9.80
2019-02-07T06:54:14.967Z,5.10
2019-02-07T06:55:14.980Z,10.00
2019-02-07T06:56:14.958Z,31.90
2019-02-07T06:57:16.975Z,3.90
2019-02-07T06:58:14.927Z,3.60
2019-02-07T06:59:14.913Z,2.90
2019-02-07T07:00:14.934Z,2.40
2019-02-07T07:01:14.960Z,2.10
2019-02-07T07:02:14.899Z,2.80
2019-02-07T07:03:14.907Z,2.50
2019-02-07T07:04:14.885Z,2.20
2019-02-07T07:05:14.864Z,1.80
2019-02-07T07:06:14.844Z,1.90
2019-02-07T07:07:14.847Z,2.00
2019-02-07T07:08:14.850Z,1.50
2019-02-07T07:09:14.795Z,1.70
2019-02-07T07:10:14.831Z,2.00
2019-02-07T07:11:14.800Z,1.90
2019-02-07T07:12:14.827Z,3.00
2019-02-07T07:13:33.276Z,2.70
2019-02-07T07:14:14.813Z,3.20
2019-02-07T07:15:14.737Z,1.80
2019-02-07T07:16:14.776Z,2.30
2019-02-07T07:17:24.891Z,2.90
2019-02-07T07:18:15.742Z,2.80
2019-02-07T07:19:14.733Z,3.00
2019-02-07T07:20:14.680Z,3.70
2019-02-07T07:21:14.730Z,3.00
2019-02-07T07:22:14.662Z,4.60
2019-02-07T07:23:14.705Z,2.40
2019-02-07T07:24:14.667Z,3.70
2019-02-07T07:25:15.592Z,3.10
2019-02-07T07:26:14.612Z,3.70
2019-02-07T07:27:14.614Z,4.00
2019-02-07T07:28:14.643Z,3.30
2019-02-07T07:29:14.566Z,3.80
2019-02-07T07:30:14.564Z,7.20
2019-02-07T07:31:14.552Z,4.80
2019-02-07T07:32:17.165Z,4.70
2019-02-07T07:33:14.553Z,4.90
2019-02-07T07:34:15.147Z,5.40
2019-02-07T07:35:14.506Z,3.50
2019-02-07T07:36:14.496Z,3.90
2019-02-07T07:37:14.485Z,3.10
2019-02-07T07:38:14.487Z,3.90
2019-02-07T07:39:14.519Z,3.80
2019-02-07T07:40:14.464Z,3.40
2019-02-07T07:41:14.483Z,4.00
2019-02-07T07:42:14.435Z,3.30
2019-02-07T07:43:14.429Z,4.10
2019-02-07T07:44:14.422Z,4.50
2019-02-07T07:45:14.395Z,4.10
2019-02-07T07:46:14.439Z,3.90
2019-02-07T07:47:14.371Z,4.10
2019-02-07T07:48:14.388Z,3.80
2019-02-07T07:49:14.356Z,8.90
2019-02-07T07:50:14.331Z,3.50
2019-02-07T07:51:14.364Z,5.40
2019-02-07T07:52:14.318Z,4.50
2019-02-07T07:53:14.305Z,4.60
2019-02-07T07:54:14.338Z,3.90
2019-02-07T07:55:14.297Z,3.70
2019-02-07T07:56:14.300Z,3.90
2019-02-07T07:57:14.258Z,4.30
2019-02-07T07:58:31.718Z,3.20
2019-02-07T07:59:14.303Z,3.50
2019-02-07T08:00:14.235Z,3.90
2019-02-07T08:01:14.215Z,6.30
2019-02-07T08:02:14.214Z,3.90
2019-02-07T08:03:14.204Z,3.30
2019-02-07T08:04:14.224Z,4.90
2019-02-07T08:05:14.231Z,4.60
2019-02-07T08:06:14.210Z,4.70
2019-02-07T08:07:14.148Z,5.00
2019-02-07T08:08:14.161Z,3.30
2019-02-07T08:09:14.154Z,4.10
2019-02-07T08:10:14.109Z,4.00
2019-02-07T08:11:14.144Z,4.60
2019-02-07T08:12:14.091Z,3.70
2019-02-07T08:13:14.083Z,4.60
2019-02-07T08:14:14.076Z,5.00
2019-02-07T08:15:14.058Z,6.40
2019-02-07T08:16:14.119Z,5.90
2019-02-07T08:17:14.058Z,5.50
2019-02-07T08:18:14.037Z,4.90
2019-02-07T08:19:14.015Z,6.10
2019-02-07T08:20:14.000Z,7.90
2019-02-07T08:21:14.023Z,5.40
2019-02-07T08:22:14.030Z,6.30
2019-02-07T08:23:14.021Z,5.60
2019-02-07T08:24:13.946Z,4.80
2019-02-07T08:25:13.972Z,6.10
2019-02-07T08:26:14.595Z,5.30
2019-02-07T08:27:13.920Z,19.50
2019-02-07T08:28:14.034Z,18.80
2019-02-07T08:29:13.901Z,14.90
2019-02-07T08:30:13.893Z,61.10
2019-02-07T08:31:13.875Z,24.10
2019-02-07T08:32:13.890Z,7.80
2019-02-07T08:33:13.955Z,9.30
2019-02-07T08:34:13.841Z,7.60
2019-02-07T08:35:13.841Z,7.80
2019-02-07T08:36:13.840Z,7.30
2019-02-07T08:37:13.807Z,7.00
2019-02-07T08:38:13.865Z,7.00
2019-02-07T08:39:13.821Z,6.50
2019-02-07T08:40:13.771Z,7.70
2019-02-07T08:41:13.766Z,8.80
2019-02-07T08:42:13.767Z,5.80
2019-02-07T08:43:13.832Z,6.50
2019-02-07T08:44:14.240Z,7.40
2019-02-07T08:45:13.773Z,7.00
2019-02-07T08:46:13.783Z,7.00
2019-02-07T08:47:13.743Z,7.30
2019-02-07T08:48:13.718Z,7.70
2019-02-07T08:49:13.701Z,7.10
2019-02-07T08:50:13.714Z,7.70
2019-02-07T08:51:13.701Z,6.60
2019-02-07T08:52:14.657Z,7.20
2019-02-07T08:53:13.639Z,7.30
2019-02-07T08:54:14.579Z,6.90
2019-02-07T08:55:13.629Z,6.70
2019-02-07T08:56:13.628Z,6.30
2019-02-07T08:57:13.603Z,9.30
2019-02-07T08:58:13.574Z,7.80
2019-02-07T08:59:13.611Z,8.70
2019-02-07T09:00:13.558Z,6.70
2019-02-07T09:01:13.574Z,4.40
2019-02-07T09:02:13.543Z,9.70
2019-02-07T09:03:13.553Z,6.50
2019-02-07T09:04:13.517Z,8.50
2019-02-07T09:05:13.511Z,7.00
2019-02-07T09:06:13.512Z,7.10
2019-02-07T09:07:13.473Z,8.20
2019-02-07T09:08:13.513Z,7.10
2019-02-07T09:09:13.475Z,6.30
2019-02-07T09:10:13.486Z,9.80
2019-02-07T09:11:13.487Z,7.10
2019-02-07T09:12:13.480Z,8.30
2019-02-07T09:13:13.451Z,8.10
2019-02-07T09:14:13.465Z,11.30
2019-02-07T09:15:13.391Z,17.70
2019-02-07T09:16:13.425Z,84.50
2019-02-07T09:17:14.542Z,91.40
2019-02-07T09:18:13.510Z,126.70
2019-02-07T09:19:13.378Z,194.60
2019-02-07T09:20:13.333Z,136.60
2019-02-07T09:21:13.336Z,28.30
2019-02-07T09:22:13.349Z,8.20
2019-02-07T09:23:13.293Z,9.40
2019-02-07T09:24:13.288Z,8.00
2019-02-07T09:25:13.349Z,10.10
2019-02-07T09:26:13.276Z,8.10
2019-02-07T09:27:13.263Z,7.60
2019-02-07T09:28:13.247Z,10.40
2019-02-07T09:29:13.268Z,9.50
2019-02-07T09:30:13.259Z,11.20
2019-02-07T09:31:13.212Z,10.70
2019-02-07T09:32:13.199Z,9.30
2019-02-07T09:33:13.199Z,9.90
2019-02-07T09:34:14.146Z,9.00
2019-02-07T09:35:13.228Z,10.00
2019-02-07T09:36:13.220Z,7.00
2019-02-07T09:37:13.152Z,8.90
2019-02-07T09:38:13.217Z,10.50
2019-02-07T09:39:13.161Z,10.00
2019-02-07T09:40:13.127Z,12.50
2019-02-07T09:41:13.105Z,9.70
2019-02-07T09:42:13.120Z,11.30
2019-02-07T09:43:34.198Z,11.50
2019-02-07T09:44:13.100Z,9.60
2019-02-07T09:45:13.658Z,8.80
2019-02-07T09:46:13.111Z,9.70
2019-02-07T09:47:13.042Z,8.50
2019-02-07T09:48:21.341Z,9.50
2019-02-07T09:49:14.038Z,9.00
2019-02-07T09:50:12.992Z,8.00
2019-02-07T09:51:12.986Z,12.10
2019-02-07T09:52:12.984Z,9.90
2019-02-07T09:53:23.506Z,8.70
2019-02-07T09:54:13.018Z,13.40
2019-02-07T09:55:12.970Z,7.90
2019-02-07T09:56:12.974Z,7.30
2019-02-07T09:57:12.928Z,11.40
2019-02-07T09:58:12.921Z,10.00
2019-02-07T09:59:12.892Z,8.70
2019-02-07T10:00:12.919Z,6.90
2019-02-07T10:01:12.957Z,8.30
2019-02-07T10:02:12.858Z,7.80
2019-02-07T10:03:12.867Z,13.80
2019-02-07T10:04:12.874Z,9.10
2019-02-07T10:05:12.878Z,10.70
2019-02-07T10:06:12.839Z,10.30
2019-02-07T10:07:12.805Z,14.30
2019-02-07T10:08:12.831Z,9.50
2019-02-07T10:09:12.814Z,10.00
2019-02-07T10:10:12.828Z,11.30
2019-02-07T10:11:12.790Z,10.60
2019-02-07T10:12:12.760Z,13.80
2019-02-07T10:13:12.783Z,10.00
2019-02-07T10:14:12.776Z,9.40
2019-02-07T10:15:14.359Z,9.10
2019-02-07T10:16:12.702Z,9.80
2019-02-07T10:17:12.726Z,7.30
2019-02-07T10:18:12.720Z,8.90
2019-02-07T10:19:12.657Z,8.40
2019-02-07T10:20:12.660Z,7.90
2019-02-07T10:21:12.647Z,8.90
2019-02-07T10:22:12.671Z,7.40
2019-02-07T10:23:12.660Z,8.10
2019-02-07T10:24:12.623Z,7.30
2019-02-07T10:25:12.604Z,5.90
2019-02-07T10:26:12.601Z,6.40
2019-02-07T10:27:12.611Z,7.70
2019-02-07T10:28:12.596Z,6.60
2019-02-07T10:29:12.569Z,6.70
2019-02-07T10:30:12.556Z,8.40
2019-02-07T10:31:13.496Z,7.90
2019-02-07T10:32:12.535Z,8.10
2019-02-07T10:33:12.540Z,8.80
2019-02-07T10:34:12.508Z,6.40
2019-02-07T10:35:22.419Z,7.90
2019-02-07T10:36:14.072Z,6.90
2019-02-07T10:37:12.469Z,7.70
2019-02-07T10:38:12.493Z,6.90
2019-02-07T10:39:12.463Z,7.40
2019-02-07T10:40:12.431Z,5.20
2019-02-07T10:41:12.448Z,6.80
2019-02-07T10:42:12.455Z,5.40
2019-02-07T10:43:12.425Z,5.30
2019-02-07T10:44:12.393Z,6.10
2019-02-07T10:45:12.409Z,5.60
2019-02-07T10:46:12.386Z,5.50
2019-02-07T10:47:13.180Z,6.90
2019-02-07T10:48:12.340Z,8.20
2019-02-07T10:49:12.348Z,6.90
2019-02-07T10:50:12.325Z,5.80
2019-02-07T10:51:12.325Z,7.60
2019-02-07T10:52:12.333Z,5.00
2019-02-07T10:53:12.274Z,5.40
2019-02-07T10:54:12.298Z,6.40
2019-02-07T10:55:12.287Z,6.70
2019-02-07T10:56:12.242Z,6.30
2019-02-07T10:57:12.270Z,6.20
2019-02-07T10:58:12.225Z,6.70
2019-02-07T10:59:12.214Z,6.10
2019-02-07T11:00:12.289Z,7.40
2019-02-07T11:01:12.196Z,7.00
2019-02-07T11:02:12.180Z,6.80
2019-02-07T11:03:12.203Z,5.20
2019-02-07T11:04:12.148Z,6.20
2019-02-07T11:05:12.197Z,7.10
2019-02-07T11:06:12.132Z,6.00
2019-02-07T11:07:12.130Z,5.90
2019-02-07T11:08:12.192Z,5.30
2019-02-07T11:09:12.134Z,6.10
2019-02-07T11:10:12.088Z,6.20
2019-02-07T11:11:12.090Z,5.50
2019-02-07T11:12:12.160Z,7.10
2019-02-07T11:13:12.083Z,6.50
2019-02-07T11:14:12.065Z,5.20
2019-02-07T11:15:12.022Z,6.40
2019-02-07T11:16:12.085Z,5.40
2019-02-07T11:17:12.008Z,6.00
2019-02-07T11:18:12.576Z,7.60
2019-02-07T11:19:21.093Z,6.20
2019-02-07T11:20:12.010Z,5.60
2019-02-07T11:21:11.966Z,6.00
2019-02-07T11:22:11.950Z,4.80
2019-02-07T11:23:11.961Z,6.00
2019-02-07T11:24:11.954Z,6.10
2019-02-07T11:25:11.931Z,4.80
2019-02-07T11:26:11.913Z,6.30
2019-02-07T11:27:11.891Z,6.30
2019-02-07T11:28:11.941Z,5.10
2019-02-07T11:29:11.909Z,6.80
2019-02-07T11:30:11.859Z,6.20
2019-02-07T11:31:11.870Z,5.40
2019-02-07T11:32:11.878Z,5.40
2019-02-07T11:33:11.837Z,6.00
2019-02-07T11:34:11.890Z,6.70
2019-02-07T11:35:11.803Z,5.70
2019-02-07T11:36:11.809Z,6.20
2019-02-07T11:37:11.810Z,5.30
2019-02-07T11:38:12.570Z,4.80
2019-02-07T11:39:11.794Z,4.90
2019-02-07T11:40:11.754Z,4.40
2019-02-07T11:41:11.735Z,5.20
2019-02-07T11:42:11.708Z,4.90
2019-02-07T11:43:11.753Z,7.50
2019-02-07T11:44:11.724Z,6.20
2019-02-07T11:45:11.722Z,7.60
2019-02-07T11:46:11.669Z,5.90
2019-02-07T11:47:11.658Z,7.40
2019-02-07T11:48:11.647Z,5.80
2019-02-07T11:49:11.673Z,6.90
2019-02-07T11:50:11.723Z,8.40
2019-02-07T11:51:11.683Z,23.90
2019-02-07T11:52:11.636Z,21.90
2019-02-07T11:53:11.612Z,14.40
2019-02-07T11:54:11.605Z,8.50
2019-02-07T11:55:11.606Z,7.50
2019-02-07T11:56:11.585Z,7.50
2019-02-07T11:57:11.568Z,6.50
2019-02-07T11:58:11.554Z,7.30
2019-02-07T11:59:11.531Z,5.80
2019-02-07T12:00:11.524Z,6.70
2019-02-07T12:01:11.573Z,6.40
2019-02-07T12:02:11.571Z,7.20
2019-02-07T12:03:11.502Z,6.70
2019-02-07T12:04:11.471Z,7.50
2019-02-07T12:05:11.495Z,6.00
2019-02-07T12:06:12.075Z,6.40
2019-02-07T12:07:11.499Z,10.90
2019-02-07T12:08:11.426Z,6.80
2019-02-07T12:09:11.413Z,7.00
2019-02-07T12:10:11.404Z,7.20
2019-02-07T12:11:11.395Z,8.20
2019-02-07T12:12:11.523Z,5.90
2019-02-07T12:13:11.368Z,6.10
2019-02-07T12:14:11.363Z,5.40
2019-02-07T12:15:11.360Z,5.30
2019-02-07T12:16:11.358Z,6.70
2019-02-07T12:17:11.357Z,6.80
2019-02-07T12:18:11.356Z,8.10
2019-02-07T12:19:17.683Z,6.30
2019-02-07T12:20:12.309Z,6.20
2019-02-07T12:21:11.312Z,5.70
2019-02-07T12:22:11.271Z,5.20
2019-02-07T12:23:11.256Z,4.90
2019-02-07T12:24:11.267Z,8.40
2019-02-07T12:25:11.277Z,6.00
2019-02-07T12:26:11.226Z,6.40
2019-02-07T12:27:11.238Z,6.60
2019-02-07T12:28:19.180Z,5.70
2019-02-07T12:29:11.217Z,6.40
2019-02-07T12:30:11.203Z,7.10
2019-02-07T12:31:12.070Z,12.40
2019-02-07T12:32:11.160Z,7.60
2019-02-07T12:33:11.175Z,7.20
2019-02-07T12:34:11.182Z,11.40
2019-02-07T12:35:11.115Z,31.60
2019-02-07T12:36:11.137Z,17.70
2019-02-07T12:37:11.139Z,6.20
2019-02-07T12:38:11.118Z,7.00
2019-02-07T12:39:11.092Z,34.30
2019-02-07T12:40:11.066Z,9.00
2019-02-07T12:41:11.046Z,9.30
2019-02-07T12:42:11.110Z,7.20
2019-02-07T12:43:11.066Z,7.00
2019-02-07T12:44:11.014Z,7.90
2019-02-07T12:45:11.073Z,7.80
2019-02-07T12:46:11.000Z,7.00
2019-02-07T12:47:11.023Z,6.70
2019-02-07T12:48:11.019Z,5.60
2019-02-07T12:49:11.018Z,6.70
2019-02-07T12:50:10.980Z,6.80
2019-02-07T12:51:10.938Z,5.40
2019-02-07T12:52:10.923Z,8.30
2019-02-07T12:53:10.943Z,6.40
2019-02-07T12:54:11.029Z,7.10
2019-02-07T12:55:10.946Z,7.60
2019-02-07T12:56:10.884Z,7.50
2019-02-07T12:57:10.925Z,6.70
2019-02-07T12:58:10.853Z,8.10
2019-02-07T12:59:10.902Z,5.50
2019-02-07T13:00:10.842Z,5.70
2019-02-07T13:01:10.842Z,5.00
2019-02-07T13:02:10.828Z,6.40
2019-02-07T13:03:10.803Z,7.40
2019-02-07T13:04:10.828Z,6.90
2019-02-07T13:05:10.835Z,6.40
2019-02-07T13:06:10.791Z,8.10
2019-02-07T13:07:10.777Z,6.30
2019-02-07T13:08:10.747Z,7.10
2019-02-07T13:09:10.767Z,6.80
2019-02-07T13:10:10.755Z,6.10
2019-02-07T13:11:10.721Z,5.60
2019-02-07T13:12:10.766Z,8.50
2019-02-07T13:13:11.634Z,15.20
2019-02-07T13:14:10.693Z,10.30
2019-02-07T13:15:10.708Z,16.50
2019-02-07T13:16:10.720Z,13.30
2019-02-07T13:17:11.669Z,10.90
2019-02-07T13:18:10.655Z,10.60
2019-02-07T13:19:10.667Z,10.30